Impacts METAR Board
IDs:

KGPT - Gulfport-Biloxi Intl, MS, US

Updated at: 1200 UTC 20 May 2018
Potential Impact None Slight Moderate High
Time 20/00Z 20/01Z 20/02Z 20/03Z 20/04Z 20/05Z 20/06Z 20/07Z 20/08Z 20/09Z 20/10Z 20/11Z 20/12Z
Temp84 82 82 81 82 82 82 81 80 81 77 74 75
Dewpt71 70 71 71 71 71 73 73 73 73 72 72 72
Altim29.96 29.99 30.01 30.02 30.04 30.04 30.02 30.02 30.01 30.02 30.02 30.04 30.05
VIS9 9 10 10 10 10 10 10 10 9 9 7 5
CIG-- -- -- -- -- 100 110 90 -- 28 -- -- --
CoverCLRCLRCLRCLRFEWOVCBKNBKNFEWBKNFEWCLRFEW
FltCatVFRVFRVFRVFRVFRVFRVFRVFRVFRMVFRVFRVFRMVFR
WX------------------------HZ
WDir17018016018017017016015017016017000
WSpd6 5 5 4 3 5 5 6 4 3 3 0 0
WGst-- -- -- -- -- -- -- -- -- -- -- -- --
Raw hourly METARs
KGPT 192353Z 17006KT 9SM CLR 29/22 A2996 RMK AO2 SLP146 T02890217 10317 20289 55001
KGPT 200053Z 18005KT 9SM CLR 28/21 A2999 RMK AO2 SLP154 T02780211
KGPT 200153Z 16005KT 10SM CLR 28/22 A3001 RMK AO2 SLP160 T02780217
KGPT 200253Z 18004KT 10SM CLR 27/22 A3002 RMK AO2 SLP164 T02720217 51018
KGPT 200353Z AUTO 17003KT 10SM FEW110 28/22 A3004 RMK AO2 SLP170 T02780217
KGPT 200453Z AUTO 17005KT 10SM OVC100 28/22 A3004 RMK AO2 SLP170 T02780217
KGPT 200553Z AUTO 16005KT 10SM FEW024 BKN110 28/23 A3002 RMK AO2 SLP166 T02780228 10289 20272 403170206 50002
KGPT 200653Z AUTO 15006KT 10SM FEW030 BKN090 27/23 A3002 RMK AO2 SLP164 T02720228
KGPT 200753Z AUTO 17004KT 10SM FEW023 27/23 A3001 RMK AO2 SLP162 T02670228
KGPT 200853Z AUTO 16003KT 9SM SCT022 BKN028 27/23 A3002 RMK AO2 SLP164 T02720228 55003
KGPT 200953Z AUTO 17003KT 9SM FEW023 25/22 A3002 RMK AO2 SLP165 T02500222
KGPT 201053Z AUTO 00000KT 7SM CLR 23/22 A3004 RMK AO2 SLP173 T02330222
KGPT 201153Z COR 00000KT 5SM HZ FEW024 FEW037 24/22 A3005 RMK AO2 SLP174 T02390222 10278 20233 51010



Page loaded:  12:20 UTC  |   05:20 AM Pacific  |   06:20 AM Mountain  |   07:20 AM Central  |   08:20 AM Eastern

 

ADVISORIES

FORECASTS

FORECASTS

OBSERVATIONS

USER TOOLS

ABOUT US